createdAt,value
2022-10-16T00:00:33.649Z,73.46
2022-10-16T00:03:00.448Z,73.32
2022-10-16T00:05:27.261Z,73.39
2022-10-16T00:07:53.964Z,73.60
2022-10-16T00:10:20.724Z,73.51
2022-10-16T00:12:47.557Z,73.41
2022-10-16T00:15:14.593Z,73.85
2022-10-16T00:17:41.332Z,73.81
2022-10-16T00:20:08.950Z,73.58
2022-10-16T00:22:35.660Z,73.71
2022-10-16T00:25:02.409Z,73.68
2022-10-16T00:27:28.982Z,73.93
2022-10-16T00:29:55.836Z,73.67
2022-10-16T00:32:22.845Z,73.84
2022-10-16T00:34:49.795Z,74.00
2022-10-16T00:37:16.509Z,74.18
2022-10-16T00:39:43.234Z,74.01
2022-10-16T00:42:17.184Z,74.08
2022-10-16T00:44:56.808Z,74.08
2022-10-16T00:47:26.759Z,74.18
2022-10-16T00:50:00.255Z,74.29
2022-10-16T00:52:27.499Z,74.17
2022-10-16T00:54:55.450Z,73.92
2022-10-16T00:57:23.896Z,74.33
2022-10-16T00:59:51.003Z,74.20
2022-10-16T01:02:18.664Z,74.00
2022-10-16T01:04:53.377Z,74.15
2022-10-16T01:07:27.056Z,74.07
2022-10-16T01:10:02.992Z,73.97
2022-10-16T01:13:12.980Z,74.13
2022-10-16T01:16:17.106Z,74.08
2022-10-16T01:18:55.714Z,74.38
2022-10-16T01:21:30.914Z,74.30
2022-10-16T01:24:06.001Z,74.23
2022-10-16T01:26:46.343Z,74.15
2022-10-16T01:29:27.349Z,74.52
2022-10-16T01:32:00.893Z,74.46
2022-10-16T01:34:36.397Z,74.74
2022-10-16T01:37:13.446Z,74.58
2022-10-16T01:39:42.633Z,74.78
2022-10-16T01:42:12.181Z,74.65
2022-10-16T01:44:40.694Z,74.33
2022-10-16T01:47:11.282Z,74.62
2022-10-16T01:49:41.772Z,74.96
2022-10-16T01:52:13.650Z,74.41
2022-10-16T01:54:44.116Z,74.74
2022-10-16T01:57:12.494Z,74.76
2022-10-16T01:59:45.862Z,74.82
2022-10-16T02:02:14.380Z,74.76
2022-10-16T02:04:47.309Z,74.68
2022-10-16T02:07:15.601Z,75.04
2022-10-16T02:09:42.358Z,74.65
2022-10-16T02:12:34.651Z,74.72
2022-10-16T02:15:01.823Z,74.79
2022-10-16T02:17:28.965Z,74.72
2022-10-16T02:19:57.484Z,74.63
2022-10-16T02:22:37.365Z,74.95
2022-10-16T02:25:10.934Z,74.88
2022-10-16T02:27:56.041Z,74.51
2022-10-16T02:30:30.591Z,74.63
2022-10-16T02:33:00.670Z,74.64
2022-10-16T02:35:28.898Z,74.71
2022-10-16T02:37:57.365Z,74.55
2022-10-16T02:40:25.516Z,74.49
2022-10-16T02:42:54.250Z,74.79
2022-10-16T02:45:21.632Z,74.67
2022-10-16T02:47:48.700Z,75.03
2022-10-16T02:50:15.494Z,74.91
2022-10-16T02:52:42.198Z,74.87
2022-10-16T02:55:09.051Z,74.95
2022-10-16T02:57:37.812Z,74.76
2022-10-16T03:00:08.545Z,75.08
2022-10-16T03:02:35.484Z,74.87
2022-10-16T03:05:02.283Z,75.06
2022-10-16T03:07:29.516Z,75.31
2022-10-16T03:09:56.527Z,75.33
2022-10-16T03:12:25.860Z,75.02
2022-10-16T03:14:52.673Z,75.11
2022-10-16T03:17:19.436Z,75.08
2022-10-16T03:19:46.144Z,75.00
2022-10-16T03:22:12.766Z,75.07
2022-10-16T03:24:39.521Z,75.08
2022-10-16T03:27:06.202Z,75.06
2022-10-16T03:29:33.941Z,75.23
2022-10-16T03:32:01.272Z,74.91
2022-10-16T03:34:27.940Z,75.01
2022-10-16T03:36:54.634Z,75.03
2022-10-16T03:39:21.386Z,74.86
2022-10-16T03:41:48.505Z,74.95
2022-10-16T03:44:15.188Z,74.95
2022-10-16T03:46:41.964Z,75.12
2022-10-16T03:49:09.821Z,75.09
2022-10-16T03:51:37.057Z,74.98
2022-10-16T03:54:03.955Z,75.17
2022-10-16T03:56:30.641Z,75.04
2022-10-16T03:58:57.235Z,75.23
2022-10-16T04:01:24.021Z,75.57
2022-10-16T04:03:50.688Z,75.24
2022-10-16T04:06:17.427Z,75.36
2022-10-16T04:08:44.636Z,75.22
2022-10-16T04:11:11.321Z,75.44
2022-10-16T04:13:38.273Z,75.36
2022-10-16T04:16:05.158Z,75.14
2022-10-16T04:18:31.869Z,75.68
2022-10-16T04:21:03.834Z,75.44
2022-10-16T04:23:30.548Z,75.42
2022-10-16T04:25:57.296Z,75.43
2022-10-16T04:28:26.292Z,75.29
2022-10-16T04:30:53.125Z,75.45
2022-10-16T04:33:19.699Z,75.44
2022-10-16T04:35:46.382Z,75.59
2022-10-16T04:38:13.342Z,75.51
2022-10-16T04:40:39.978Z,75.50
2022-10-16T04:43:06.989Z,75.51
2022-10-16T04:45:33.648Z,75.44
2022-10-16T04:48:01.503Z,75.40
2022-10-16T04:50:28.231Z,75.36
2022-10-16T04:52:54.920Z,75.42
2022-10-16T04:55:21.639Z,75.48
2022-10-16T04:57:48.243Z,75.29
2022-10-16T05:00:15.492Z,75.62
2022-10-16T05:02:42.313Z,75.41
2022-10-16T05:05:09.368Z,75.51
2022-10-16T05:07:36.095Z,75.48
2022-10-16T05:10:03.107Z,75.29
2022-10-16T05:12:30.198Z,75.32
2022-10-16T05:14:59.868Z,75.53
2022-10-16T05:17:27.526Z,75.89
2022-10-16T05:19:54.719Z,75.64
2022-10-16T05:22:21.442Z,75.81
2022-10-16T05:24:48.160Z,75.80
2022-10-16T05:27:20.066Z,75.70
2022-10-16T05:29:48.144Z,75.71
2022-10-16T05:32:16.244Z,75.68
2022-10-16T05:34:43.193Z,75.63
2022-10-16T05:37:10.059Z,75.56
2022-10-16T05:39:37.954Z,75.72
2022-10-16T05:42:05.495Z,75.71
2022-10-16T05:47:04.053Z,75.88
2022-10-16T05:49:30.726Z,75.86
2022-10-16T05:51:57.625Z,75.91
2022-10-16T05:54:24.345Z,76.00
2022-10-16T05:56:50.934Z,76.10
2022-10-16T05:59:17.713Z,76.20
2022-10-16T06:01:44.522Z,76.31
2022-10-16T06:06:42.854Z,76.41
2022-10-16T06:09:10.721Z,76.22
2022-10-16T06:11:37.713Z,76.61
2022-10-16T06:14:07.942Z,76.58
2022-10-16T06:16:36.662Z,76.56
2022-10-16T06:19:07.051Z,76.76
2022-10-16T06:21:34.009Z,76.96
2022-10-16T06:24:00.699Z,77.29
2022-10-16T06:26:29.754Z,77.53
2022-10-16T06:28:58.134Z,77.37
2022-10-16T06:31:28.613Z,77.48
2022-10-16T06:33:56.069Z,77.85
2022-10-16T06:36:23.743Z,77.63
2022-10-16T06:38:50.735Z,78.12
2022-10-16T06:41:21.099Z,78.14
2022-10-16T06:43:48.542Z,78.39
2022-10-16T06:46:17.921Z,78.51
2022-10-16T06:48:44.941Z,78.56
2022-10-16T06:51:14.132Z,78.67
2022-10-16T06:54:01.125Z,78.83
2022-10-16T06:56:30.792Z,78.63
2022-10-16T06:58:57.781Z,78.95
2022-10-16T07:01:25.819Z,78.95
2022-10-16T07:03:53.771Z,79.07
2022-10-16T07:06:21.969Z,79.13
2022-10-16T07:08:49.085Z,79.24
2022-10-16T07:11:18.776Z,79.21
2022-10-16T07:13:50.891Z,79.42
2022-10-16T07:16:26.887Z,79.49
2022-10-16T07:19:00.243Z,79.68
2022-10-16T07:21:30.206Z,79.92
2022-10-16T07:24:02.458Z,79.66
2022-10-16T07:26:31.267Z,79.81
2022-10-16T07:28:58.485Z,79.72
2022-10-16T07:31:25.412Z,79.89
2022-10-16T07:33:53.014Z,79.82
2022-10-16T07:36:21.066Z,80.10
2022-10-16T07:38:48.053Z,80.12
2022-10-16T07:41:17.342Z,80.06
2022-10-16T07:43:52.087Z,79.69
2022-10-16T07:46:20.461Z,79.69
2022-10-16T07:48:48.296Z,79.59
2022-10-16T07:51:17.368Z,79.57
2022-10-16T07:53:44.189Z,79.63
2022-10-16T07:56:11.605Z,79.55
2022-10-16T07:58:38.877Z,79.32
2022-10-16T08:01:08.631Z,79.24
2022-10-16T08:03:35.649Z,79.13
2022-10-16T08:06:03.698Z,78.86
2022-10-16T08:08:30.875Z,78.50
2022-10-16T08:10:57.799Z,78.23
2022-10-16T08:13:27.741Z,77.83
2022-10-16T08:15:55.598Z,77.27
2022-10-16T08:18:24.258Z,77.16
2022-10-16T08:21:00.909Z,76.57
2022-10-16T08:23:28.693Z,76.02
2022-10-16T08:25:56.173Z,75.59
2022-10-16T08:28:23.966Z,75.07
2022-10-16T08:30:50.818Z,74.26
2022-10-16T08:33:17.462Z,73.42
2022-10-16T08:35:44.407Z,72.73
2022-10-16T08:38:11.575Z,72.32
2022-10-16T08:40:38.884Z,71.48
2022-10-16T08:43:36.555Z,71.00
2022-10-16T08:46:27.809Z,69.97
2022-10-16T08:48:58.118Z,69.40
2022-10-16T08:51:32.090Z,68.53
2022-10-16T08:54:02.493Z,67.95
2022-10-16T08:56:29.681Z,67.71
2022-10-16T08:59:01.533Z,67.22
2022-10-16T09:01:42.855Z,66.72
2022-10-16T09:04:36.864Z,65.65
2022-10-16T09:07:20.645Z,65.14
2022-10-16T09:10:26.965Z,65.14
2022-10-16T09:13:12.015Z,64.58
2022-10-16T09:15:50.158Z,63.65
2022-10-16T09:18:20.892Z,63.03
2022-10-16T09:20:57.012Z,62.38
2022-10-16T09:23:27.964Z,62.08
2022-10-16T09:25:57.492Z,61.09
2022-10-16T09:28:24.402Z,61.38
2022-10-16T09:30:51.261Z,60.57
2022-10-16T09:33:21.709Z,60.14
2022-10-16T09:35:54.607Z,59.79
2022-10-16T09:38:27.675Z,59.56
2022-10-16T09:41:02.387Z,59.15
2022-10-16T09:43:36.890Z,58.96
2022-10-16T09:46:05.131Z,57.98
2022-10-16T09:48:45.852Z,57.19
2022-10-16T09:51:25.782Z,57.10
2022-10-16T09:53:57.888Z,56.71
2022-10-16T09:56:43.319Z,56.12
2022-10-16T09:59:18.386Z,56.20
2022-10-16T10:01:49.208Z,55.95
2022-10-16T10:04:16.057Z,55.49
2022-10-16T10:06:49.463Z,55.47
2022-10-16T10:09:24.000Z,55.04
2022-10-16T10:12:04.232Z,54.82
2022-10-16T10:14:47.164Z,54.40
2022-10-16T10:17:24.088Z,54.00
2022-10-16T10:19:53.972Z,53.97
2022-10-16T10:22:40.497Z,53.67
2022-10-16T10:25:12.934Z,53.92
2022-10-16T10:27:51.373Z,54.23
2022-10-16T10:30:20.628Z,54.14
2022-10-16T10:32:56.394Z,53.99
2022-10-16T10:35:29.960Z,53.67
2022-10-16T10:38:10.717Z,53.35
2022-10-16T10:41:15.741Z,53.18
2022-10-16T10:43:46.266Z,53.00
2022-10-16T10:46:35.567Z,52.80
2022-10-16T10:49:18.868Z,52.53
2022-10-16T10:52:22.465Z,52.16
2022-10-16T10:55:10.345Z,52.41
2022-10-16T10:58:05.320Z,52.22
2022-10-16T11:00:39.804Z,51.92
2022-10-16T11:03:36.151Z,51.73
2022-10-16T11:06:08.486Z,51.35
2022-10-16T11:08:49.469Z,51.23
2022-10-16T11:11:38.654Z,51.23
2022-10-16T11:14:11.257Z,51.26
2022-10-16T11:16:43.588Z,50.78
2022-10-16T11:20:01.742Z,50.64
2022-10-16T11:22:35.357Z,50.29
2022-10-16T11:25:19.623Z,50.05
2022-10-16T11:27:53.111Z,50.02
2022-10-16T11:30:26.614Z,49.94
2022-10-16T11:33:05.463Z,50.08
2022-10-16T11:35:47.139Z,49.67
2022-10-16T11:38:39.364Z,49.53
2022-10-16T11:41:18.450Z,49.12
2022-10-16T11:43:58.217Z,48.87
2022-10-16T11:46:26.837Z,48.98
2022-10-16T11:49:15.772Z,49.07
2022-10-16T11:51:50.044Z,48.96
2022-10-16T11:54:31.918Z,48.61
2022-10-16T11:57:08.358Z,48.43
2022-10-16T12:00:12.256Z,48.17
2022-10-16T12:02:55.569Z,47.85
2022-10-16T12:05:31.037Z,47.70
2022-10-16T12:08:09.218Z,47.80
2022-10-16T12:13:32.512Z,47.23
2022-10-16T12:16:25.753Z,46.99
2022-10-16T12:19:14.437Z,47.07
2022-10-16T12:21:42.474Z,47.06
2022-10-16T12:24:23.314Z,47.04
2022-10-16T12:26:53.219Z,46.36
2022-10-16T12:29:31.569Z,46.58
2022-10-16T12:31:58.809Z,46.49
2022-10-16T12:34:41.427Z,46.54
2022-10-16T12:37:22.144Z,46.57
2022-10-16T12:39:50.304Z,46.33
2022-10-16T12:42:25.687Z,46.28
2022-10-16T12:44:53.245Z,46.20
2022-10-16T12:47:44.277Z,45.87
2022-10-16T12:50:32.013Z,45.72
2022-10-16T12:53:00.423Z,45.53
2022-10-16T12:55:28.580Z,45.54
2022-10-16T12:58:34.562Z,45.48
2022-10-16T13:01:22.896Z,45.05
2022-10-16T13:04:03.239Z,44.28
2022-10-16T13:07:17.674Z,44.22
2022-10-16T13:09:56.630Z,44.19
2022-10-16T13:13:05.036Z,44.40
2022-10-16T13:15:36.479Z,44.92
2022-10-16T13:18:15.453Z,44.67
2022-10-16T13:21:22.349Z,44.70
2022-10-16T13:24:24.123Z,44.15
2022-10-16T13:27:01.866Z,44.34
2022-10-16T13:29:35.419Z,44.43
2022-10-16T13:32:08.598Z,45.03
2022-10-16T13:34:47.026Z,45.40
2022-10-16T13:37:22.166Z,44.64
2022-10-16T13:39:49.018Z,44.41
2022-10-16T13:42:27.773Z,44.45
2022-10-16T13:44:56.832Z,44.92
2022-10-16T13:47:29.586Z,45.08
2022-10-16T13:50:07.261Z,45.32
2022-10-16T13:52:42.438Z,45.97
2022-10-16T13:55:18.581Z,45.72
2022-10-16T13:57:52.020Z,45.61
2022-10-16T14:00:31.227Z,45.65
2022-10-16T14:03:15.292Z,45.84
2022-10-16T14:05:51.800Z,45.73
2022-10-16T14:08:18.856Z,45.85
2022-10-16T14:10:50.908Z,46.15
2022-10-16T14:13:35.033Z,46.08
2022-10-16T14:16:07.992Z,46.28
2022-10-16T14:18:36.007Z,46.52
2022-10-16T14:21:08.256Z,46.60
2022-10-16T14:23:40.129Z,46.95
2022-10-16T14:26:10.226Z,47.96
2022-10-16T14:28:38.665Z,47.95
2022-10-16T14:31:26.891Z,47.66
2022-10-16T14:33:53.787Z,47.68
2022-10-16T14:36:22.850Z,48.04
2022-10-16T14:39:20.305Z,48.67
2022-10-16T14:41:50.275Z,49.55
2022-10-16T14:44:19.131Z,50.07
2022-10-16T14:46:47.016Z,50.70
2022-10-16T14:49:13.599Z,51.23
2022-10-16T14:51:43.035Z,51.82
2022-10-16T14:54:11.928Z,52.14
2022-10-16T14:56:59.534Z,52.75
2022-10-16T14:59:34.815Z,53.52
2022-10-16T15:02:10.392Z,53.83
2022-10-16T15:04:37.144Z,54.11
2022-10-16T15:07:03.767Z,54.52
2022-10-16T15:09:30.501Z,54.87
2022-10-16T15:11:57.328Z,55.13
2022-10-16T15:14:26.682Z,55.45
2022-10-16T15:16:53.326Z,55.71
2022-10-16T15:19:20.040Z,55.94
2022-10-16T15:21:47.005Z,56.26
2022-10-16T15:24:17.833Z,56.68
2022-10-16T15:26:47.716Z,56.84
2022-10-16T15:29:14.496Z,57.50
2022-10-16T15:31:43.705Z,57.95
2022-10-16T15:34:12.576Z,58.47
2022-10-16T15:36:40.021Z,58.91
2022-10-16T15:39:12.103Z,58.97
2022-10-16T15:41:38.868Z,59.28
2022-10-16T15:44:05.655Z,59.27
2022-10-16T15:46:34.721Z,59.52
2022-10-16T15:49:01.656Z,59.92
2022-10-16T15:51:30.403Z,60.33
2022-10-16T15:53:58.120Z,60.68
2022-10-16T15:56:26.454Z,60.64
2022-10-16T15:58:54.875Z,60.78
2022-10-16T16:01:24.747Z,61.13
2022-10-16T16:03:55.198Z,61.34
2022-10-16T16:06:24.698Z,61.55
2022-10-16T16:08:52.195Z,62.04
2022-10-16T16:11:20.318Z,62.42
2022-10-16T16:13:47.600Z,62.38
2022-10-16T16:16:17.630Z,62.67
2022-10-16T16:18:45.325Z,63.00
2022-10-16T16:21:13.284Z,63.02
2022-10-16T16:23:39.888Z,63.31
2022-10-16T16:26:11.004Z,63.67
2022-10-16T16:28:38.378Z,63.51
2022-10-16T16:31:05.566Z,63.48
2022-10-16T16:33:32.507Z,63.57
2022-10-16T16:36:01.128Z,63.62
2022-10-16T16:38:28.806Z,63.43
2022-10-16T16:40:56.449Z,63.60
2022-10-16T16:43:28.855Z,63.91
2022-10-16T16:45:55.738Z,64.00
2022-10-16T16:48:23.259Z,64.21
2022-10-16T16:50:53.040Z,64.58
2022-10-16T16:53:19.860Z,64.84
2022-10-16T16:55:46.784Z,65.06
2022-10-16T16:58:13.500Z,65.21
2022-10-16T17:00:56.451Z,65.22
2022-10-16T17:03:26.437Z,65.22
2022-10-16T17:06:00.299Z,65.34
2022-10-16T17:08:28.327Z,65.85
2022-10-16T17:10:56.204Z,65.94
2022-10-16T17:13:24.394Z,66.14
2022-10-16T17:15:51.860Z,66.26
2022-10-16T17:18:18.693Z,66.17
2022-10-16T17:20:45.584Z,66.43
2022-10-16T17:23:13.013Z,66.52
2022-10-16T17:25:40.693Z,66.38
2022-10-16T17:28:08.625Z,66.43
2022-10-16T17:30:35.853Z,66.41
2022-10-16T17:33:02.743Z,66.52
2022-10-16T17:35:29.623Z,66.64
2022-10-16T17:37:56.535Z,66.60
2022-10-16T17:40:23.212Z,66.75
2022-10-16T17:42:49.782Z,66.92
2022-10-16T17:45:16.470Z,66.93
2022-10-16T17:47:43.148Z,67.33
2022-10-16T17:50:13.337Z,67.41
2022-10-16T17:52:42.368Z,67.32
2022-10-16T17:55:09.720Z,67.11
2022-10-16T17:57:36.295Z,67.22
2022-10-16T18:00:03.831Z,67.31
2022-10-16T18:02:30.719Z,67.72
2022-10-16T18:04:57.524Z,67.00
2022-10-16T18:07:26.846Z,67.31
2022-10-16T18:10:10.413Z,67.41
2022-10-16T18:12:39.104Z,67.63
2022-10-16T18:15:06.358Z,67.71
2022-10-16T18:17:37.733Z,68.01
2022-10-16T18:20:07.242Z,68.05
2022-10-16T18:22:38.375Z,68.26
2022-10-16T18:25:06.422Z,68.32
2022-10-16T18:27:34.575Z,68.54
2022-10-16T18:30:01.228Z,68.54
2022-10-16T18:32:28.253Z,68.59
2022-10-16T18:34:55.388Z,68.82
2022-10-16T18:37:24.103Z,68.73
2022-10-16T18:39:50.740Z,68.79
2022-10-16T18:42:21.026Z,68.97
2022-10-16T18:44:49.158Z,69.03
2022-10-16T18:47:19.881Z,69.14
2022-10-16T18:49:49.558Z,69.10
2022-10-16T18:52:16.493Z,69.20
2022-10-16T18:54:43.262Z,69.20
2022-10-16T18:57:09.999Z,68.93
2022-10-16T18:59:36.742Z,69.11
2022-10-16T19:02:03.596Z,68.94
2022-10-16T19:04:30.994Z,69.11
2022-10-16T19:06:57.819Z,69.22
2022-10-16T19:09:25.805Z,69.43
2022-10-16T19:11:53.245Z,69.64
2022-10-16T19:14:21.271Z,69.32
2022-10-16T19:16:48.912Z,69.49
2022-10-16T19:19:18.958Z,69.67
2022-10-16T19:21:47.810Z,69.77
2022-10-16T19:24:15.552Z,69.87
2022-10-16T19:26:42.546Z,70.19
2022-10-16T19:29:10.733Z,70.05
2022-10-16T19:31:37.570Z,70.00
2022-10-16T19:34:06.868Z,69.70
2022-10-16T19:36:38.092Z,70.02
2022-10-16T19:39:12.796Z,69.80
2022-10-16T19:41:39.858Z,69.71
2022-10-16T19:44:08.457Z,69.69
2022-10-16T19:46:38.506Z,69.58
2022-10-16T19:49:07.870Z,69.37
2022-10-16T19:51:35.438Z,69.38
2022-10-16T19:54:12.446Z,69.70
2022-10-16T19:56:39.803Z,69.44
2022-10-16T19:59:11.755Z,69.87
2022-10-16T20:01:39.406Z,69.39
2022-10-16T20:04:06.225Z,69.53
2022-10-16T20:06:33.107Z,69.77
2022-10-16T20:08:59.804Z,69.88
2022-10-16T20:11:29.441Z,69.95
2022-10-16T20:13:56.457Z,69.94
2022-10-16T20:16:23.666Z,70.12
2022-10-16T20:18:51.765Z,70.28
2022-10-16T20:21:20.926Z,70.42
2022-10-16T20:23:49.286Z,70.12
2022-10-16T20:26:16.561Z,70.11
2022-10-16T20:28:44.127Z,69.89
2022-10-16T20:31:18.382Z,70.32
2022-10-16T20:33:45.237Z,70.00
2022-10-16T20:36:13.742Z,70.06
2022-10-16T20:38:41.948Z,70.32
2022-10-16T20:41:10.331Z,70.34
2022-10-16T20:43:41.218Z,70.31
2022-10-16T20:46:10.206Z,70.24
2022-10-16T20:48:41.072Z,70.34
2022-10-16T20:51:31.972Z,70.77
2022-10-16T20:54:01.596Z,70.66
2022-10-16T20:56:30.768Z,70.72
2022-10-16T20:58:58.264Z,70.67
2022-10-16T21:01:26.995Z,70.85
2022-10-16T21:03:59.784Z,71.03
2022-10-16T21:06:26.876Z,71.06
2022-10-16T21:08:54.409Z,71.24
2022-10-16T21:11:24.442Z,71.26
2022-10-16T21:13:56.093Z,71.19
2022-10-16T21:16:22.940Z,71.45
2022-10-16T21:18:50.387Z,71.56
2022-10-16T21:21:28.422Z,71.62
2022-10-16T21:23:57.482Z,71.56
2022-10-16T21:26:28.205Z,71.41
2022-10-16T21:29:07.037Z,71.44
2022-10-16T21:31:34.600Z,71.71
2022-10-16T21:34:01.771Z,71.77
2022-10-16T21:36:33.588Z,71.89
2022-10-16T21:39:14.845Z,72.20
2022-10-16T21:41:43.750Z,72.32
2022-10-16T21:44:11.373Z,72.22
2022-10-16T21:46:40.308Z,72.33
2022-10-16T21:49:10.257Z,72.49
2022-10-16T21:51:40.187Z,72.55
2022-10-16T21:54:10.217Z,72.55
2022-10-16T21:56:36.967Z,72.67
2022-10-16T21:59:04.093Z,72.73
2022-10-16T22:01:31.236Z,72.71
2022-10-16T22:03:58.118Z,72.67
2022-10-16T22:06:27.555Z,72.67
2022-10-16T22:08:57.228Z,72.50
2022-10-16T22:11:39.176Z,72.22
2022-10-16T22:14:12.462Z,72.37
2022-10-16T22:16:39.396Z,72.53
2022-10-16T22:19:09.732Z,72.56
2022-10-16T22:21:38.933Z,72.72
2022-10-16T22:24:06.670Z,72.49
2022-10-16T22:26:34.141Z,72.58
2022-10-16T22:29:00.817Z,72.60
2022-10-16T22:31:27.460Z,72.77
2022-10-16T22:33:59.525Z,72.62
2022-10-16T22:36:26.893Z,73.06
2022-10-16T22:38:54.510Z,72.72
2022-10-16T22:41:21.990Z,72.87
2022-10-16T22:43:49.236Z,73.16
2022-10-16T22:46:18.854Z,73.28
2022-10-16T22:48:46.142Z,73.18
2022-10-16T22:51:17.280Z,73.08
2022-10-16T22:53:45.957Z,73.36
2022-10-16T22:56:13.533Z,73.09
2022-10-16T22:58:40.367Z,73.47
2022-10-16T23:01:18.522Z,73.34
2022-10-16T23:03:45.113Z,73.46
2022-10-16T23:06:11.832Z,73.34
2022-10-16T23:08:38.518Z,73.31
2022-10-16T23:11:07.208Z,73.37
2022-10-16T23:13:40.709Z,73.21
2022-10-16T23:16:07.796Z,73.21
2022-10-16T23:18:34.958Z,73.25
2022-10-16T23:21:06.811Z,73.26
2022-10-16T23:23:37.876Z,73.34
2022-10-16T23:26:13.110Z,73.49
2022-10-16T23:28:40.346Z,73.60
2022-10-16T23:31:08.377Z,73.29
2022-10-16T23:33:36.655Z,73.38
2022-10-16T23:36:08.566Z,73.56
2022-10-16T23:38:35.426Z,73.45
2022-10-16T23:41:02.230Z,73.65
2022-10-16T23:43:29.354Z,73.41
2022-10-16T23:45:56.337Z,73.58
2022-10-16T23:48:25.812Z,73.67
2022-10-16T23:50:52.762Z,73.48
2022-10-16T23:53:19.698Z,73.76
2022-10-16T23:55:46.637Z,73.95
2022-10-16T23:58:13.576Z,73.86
